sensor_id;sensor_type;location;lat;lon;timestamp;temperature;humidity
85830;DHT22;76277;49.212;16.680;2024-03-08T00:01:50;-0.11;89.75
85830;DHT22;76277;49.212;16.680;2024-03-08T00:04:35;-0.11;89.75
85830;DHT22;76277;49.212;16.680;2024-03-08T00:07:20;0.58;87.80
85830;DHT22;76277;49.212;16.680;2024-03-08T00:10:05;0.58;87.80
85830;DHT22;76277;49.212;16.680;2024-03-08T00:12:49;0.58;87.80
85830;DHT22;76277;49.212;16.680;2024-03-08T00:15:34;0.58;87.80
85830;DHT22;76277;49.212;16.680;2024-03-08T00:18:18;0.58;87.80
85830;DHT22;76277;49.212;16.680;2024-03-08T00:21:03;1.29;85.72
85830;DHT22;76277;49.212;16.680;2024-03-08T00:23:47;1.29;85.72
85830;DHT22;76277;49.212;16.680;2024-03-08T00:26:32;1.29;85.72
85830;DHT22;76277;49.212;16.680;2024-03-08T00:29:18;1.29;85.72
85830;DHT22;76277;49.212;16.680;2024-03-08T00:32:01;1.29;85.72
85830;DHT22;76277;49.212;16.680;2024-03-08T00:37:31;0.95;85.74
85830;DHT22;76277;49.212;16.680;2024-03-08T00:40:16;0.95;85.74
85830;DHT22;76277;49.212;16.680;2024-03-08T00:43:00;0.95;85.74
85830;DHT22;76277;49.212;16.680;2024-03-08T00:45:45;0.95;85.74
85830;DHT22;76277;49.212;16.680;2024-03-08T00:48:29;0.95;85.74
85830;DHT22;76277;49.212;16.680;2024-03-08T00:51:14;1.21;85.32
85830;DHT22;76277;49.212;16.680;2024-03-08T00:53:59;1.21;85.32
85830;DHT22;76277;49.212;16.680;2024-03-08T00:56:43;1.21;85.32
85830;DHT22;76277;49.212;16.680;2024-03-08T00:59:28;1.21;85.32
85830;DHT22;76277;49.212;16.680;2024-03-08T01:02:13;1.21;85.32
85830;DHT22;76277;49.212;16.680;2024-03-08T01:04:57;1.21;85.32
85830;DHT22;76277;49.212;16.680;2024-03-08T01:07:42;0.66;86.73
85830;DHT22;76277;49.212;16.680;2024-03-08T01:10:27;0.66;86.73
85830;DHT22;76277;49.212;16.680;2024-03-08T01:13:11;0.66;86.73
85830;DHT22;76277;49.212;16.680;2024-03-08T01:15:56;0.66;86.73
85830;DHT22;76277;49.212;16.680;2024-03-08T01:18:41;0.66;86.73
85830;DHT22;76277;49.212;16.680;2024-03-08T01:21:26;0.91;86.46
85830;DHT22;76277;49.212;16.680;2024-03-08T01:24:10;0.91;86.46
85830;DHT22;76277;49.212;16.680;2024-03-08T01:26:55;0.91;86.46
85830;DHT22;76277;49.212;16.680;2024-03-08T01:29:40;0.91;86.46
85830;DHT22;76277;49.212;16.680;2024-03-08T01:32:24;0.91;86.46
85830;DHT22;76277;49.212;16.680;2024-03-08T01:35:09;0.91;86.46
85830;DHT22;76277;49.212;16.680;2024-03-08T01:37:53;1.59;84.26
85830;DHT22;76277;49.212;16.680;2024-03-08T01:40:38;1.59;84.26
85830;DHT22;76277;49.212;16.680;2024-03-08T01:43:26;1.59;84.26
85830;DHT22;76277;49.212;16.680;2024-03-08T01:46:07;1.59;84.26
85830;DHT22;76277;49.212;16.680;2024-03-08T01:48:52;1.59;84.26
85830;DHT22;76277;49.212;16.680;2024-03-08T01:51:37;2.02;82.59
85830;DHT22;76277;49.212;16.680;2024-03-08T01:54:22;2.02;82.59
85830;DHT22;76277;49.212;16.680;2024-03-08T01:57:06;2.02;82.59
85830;DHT22;76277;49.212;16.680;2024-03-08T01:59:51;2.02;82.59
85830;DHT22;76277;49.212;16.680;2024-03-08T02:02:35;2.02;82.59
85830;DHT22;76277;49.212;16.680;2024-03-08T02:05:20;2.02;82.59
85830;DHT22;76277;49.212;16.680;2024-03-08T02:08:05;1.71;83.34
85830;DHT22;76277;49.212;16.680;2024-03-08T02:10:49;1.71;83.34
85830;DHT22;76277;49.212;16.680;2024-03-08T02:13:34;1.71;83.34
85830;DHT22;76277;49.212;16.680;2024-03-08T02:16:20;1.71;83.34
85830;DHT22;76277;49.212;16.680;2024-03-08T02:19:03;1.71;83.34
85830;DHT22;76277;49.212;16.680;2024-03-08T02:21:48;0.73;86.55
85830;DHT22;76277;49.212;16.680;2024-03-08T02:24:33;0.73;86.55
85830;DHT22;76277;49.212;16.680;2024-03-08T02:27:23;0.73;86.55
85830;DHT22;76277;49.212;16.680;2024-03-08T02:30:02;0.73;86.55
85830;DHT22;76277;49.212;16.680;2024-03-08T02:32:47;0.73;86.55
85830;DHT22;76277;49.212;16.680;2024-03-08T02:35:31;0.73;86.55
85830;DHT22;76277;49.212;16.680;2024-03-08T02:38:17;0.22;88.10
85830;DHT22;76277;49.212;16.680;2024-03-08T02:41:01;0.22;88.10
85830;DHT22;76277;49.212;16.680;2024-03-08T02:43:45;0.22;88.10
85830;DHT22;76277;49.212;16.680;2024-03-08T02:46:30;0.22;88.10
85830;DHT22;76277;49.212;16.680;2024-03-08T02:49:15;0.22;88.10
85830;DHT22;76277;49.212;16.680;2024-03-08T02:51:59;0.06;88.67
85830;DHT22;76277;49.212;16.680;2024-03-08T02:54:44;0.06;88.67
85830;DHT22;76277;49.212;16.680;2024-03-08T02:57:29;0.06;88.67
85830;DHT22;76277;49.212;16.680;2024-03-08T03:00:14;0.06;88.67
85830;DHT22;76277;49.212;16.680;2024-03-08T03:02:58;0.06;88.67
85830;DHT22;76277;49.212;16.680;2024-03-08T03:05:43;0.06;88.67
85830;DHT22;76277;49.212;16.680;2024-03-08T03:08:27;1.29;85.61
85830;DHT22;76277;49.212;16.680;2024-03-08T03:11:12;1.29;85.61
85830;DHT22;76277;49.212;16.680;2024-03-08T03:13:57;1.29;85.61
85830;DHT22;76277;49.212;16.680;2024-03-08T03:16:42;1.29;85.61
85830;DHT22;76277;49.212;16.680;2024-03-08T03:19:26;1.29;85.61
85830;DHT22;76277;49.212;16.680;2024-03-08T03:22:11;1.95;83.14
85830;DHT22;76277;49.212;16.680;2024-03-08T03:24:55;1.95;83.14
85830;DHT22;76277;49.212;16.680;2024-03-08T03:27:40;1.95;83.14
85830;DHT22;76277;49.212;16.680;2024-03-08T03:30:25;1.95;83.14
85830;DHT22;76277;49.212;16.680;2024-03-08T03:33:09;1.95;83.14
85830;DHT22;76277;49.212;16.680;2024-03-08T03:35:54;1.95;83.14
85830;DHT22;76277;49.212;16.680;2024-03-08T03:38:39;2.18;82.36
85830;DHT22;76277;49.212;16.680;2024-03-08T03:41:23;2.18;82.36
85830;DHT22;76277;49.212;16.680;2024-03-08T03:44:08;2.18;82.36
85830;DHT22;76277;49.212;16.680;2024-03-08T03:46:53;2.18;82.36
85830;DHT22;76277;49.212;16.680;2024-03-08T03:49:37;2.18;82.36
85830;DHT22;76277;49.212;16.680;2024-03-08T03:52:22;2.29;81.98
85830;DHT22;76277;49.212;16.680;2024-03-08T03:55:07;2.29;81.98
85830;DHT22;76277;49.212;16.680;2024-03-08T03:57:51;2.29;81.98
85830;DHT22;76277;49.212;16.680;2024-03-08T04:00:36;2.29;81.98
85830;DHT22;76277;49.212;16.680;2024-03-08T04:03:20;2.29;81.98
85830;DHT22;76277;49.212;16.680;2024-03-08T04:06:06;2.29;81.98
85830;DHT22;76277;49.212;16.680;2024-03-08T04:08:50;2.61;80.88
85830;DHT22;76277;49.212;16.680;2024-03-08T04:11:34;2.61;80.88
85830;DHT22;76277;49.212;16.680;2024-03-08T04:14:19;2.61;80.88
85830;DHT22;76277;49.212;16.680;2024-03-08T04:17:04;2.61;80.88
85830;DHT22;76277;49.212;16.680;2024-03-08T04:19:49;2.61;80.88
85830;DHT22;76277;49.212;16.680;2024-03-08T04:22:34;2.57;80.92
85830;DHT22;76277;49.212;16.680;2024-03-08T04:25:18;2.57;80.92
85830;DHT22;76277;49.212;16.680;2024-03-08T04:28:03;2.57;80.92
85830;DHT22;76277;49.212;16.680;2024-03-08T04:30:47;2.57;80.92
85830;DHT22;76277;49.212;16.680;2024-03-08T04:33:32;2.57;80.92
85830;DHT22;76277;49.212;16.680;2024-03-08T04:36:16;2.57;80.92
85830;DHT22;76277;49.212;16.680;2024-03-08T04:39:01;2.83;80.44
85830;DHT22;76277;49.212;16.680;2024-03-08T04:41:46;2.83;80.44
85830;DHT22;76277;49.212;16.680;2024-03-08T04:44:31;2.83;80.44
85830;DHT22;76277;49.212;16.680;2024-03-08T04:47:15;2.83;80.44
85830;DHT22;76277;49.212;16.680;2024-03-08T04:50:00;2.83;80.44
85830;DHT22;76277;49.212;16.680;2024-03-08T04:52:45;2.83;80.20
85830;DHT22;76277;49.212;16.680;2024-03-08T04:55:29;2.83;80.20
85830;DHT22;76277;49.212;16.680;2024-03-08T04:58:14;2.83;80.20
85830;DHT22;76277;49.212;16.680;2024-03-08T05:00:59;2.83;80.20
85830;DHT22;76277;49.212;16.680;2024-03-08T05:03:43;2.83;80.20
85830;DHT22;76277;49.212;16.680;2024-03-08T05:06:28;2.83;80.20
85830;DHT22;76277;49.212;16.680;2024-03-08T05:09:13;2.99;79.84
85830;DHT22;76277;49.212;16.680;2024-03-08T05:11:57;2.99;79.84
85830;DHT22;76277;49.212;16.680;2024-03-08T05:14:42;2.99;79.84
85830;DHT22;76277;49.212;16.680;2024-03-08T05:17:27;2.99;79.84
85830;DHT22;76277;49.212;16.680;2024-03-08T05:20:11;2.99;79.84
85830;DHT22;76277;49.212;16.680;2024-03-08T05:22:56;3.09;79.35
85830;DHT22;76277;49.212;16.680;2024-03-08T05:25:41;3.09;79.35
85830;DHT22;76277;49.212;16.680;2024-03-08T05:28:25;3.09;79.35
85830;DHT22;76277;49.212;16.680;2024-03-08T05:31:10;3.09;79.35
85830;DHT22;76277;49.212;16.680;2024-03-08T05:33:55;3.09;79.35
85830;DHT22;76277;49.212;16.680;2024-03-08T05:36:39;3.09;79.35
85830;DHT22;76277;49.212;16.680;2024-03-08T05:39:24;3.09;79.44
85830;DHT22;76277;49.212;16.680;2024-03-08T05:42:08;3.09;79.44
85830;DHT22;76277;49.212;16.680;2024-03-08T05:44:53;3.09;79.44
85830;DHT22;76277;49.212;16.680;2024-03-08T05:47:39;3.09;79.44
85830;DHT22;76277;49.212;16.680;2024-03-08T05:50:22;3.09;79.44
85830;DHT22;76277;49.212;16.680;2024-03-08T05:53:07;3.18;78.99
85830;DHT22;76277;49.212;16.680;2024-03-08T05:55:52;3.18;78.99
85830;DHT22;76277;49.212;16.680;2024-03-08T05:58:37;3.18;78.99
85830;DHT22;76277;49.212;16.680;2024-03-08T06:01:21;3.18;78.99
85830;DHT22;76277;49.212;16.680;2024-03-08T06:04:06;3.18;78.99
85830;DHT22;76277;49.212;16.680;2024-03-08T06:06:50;3.18;78.99
85830;DHT22;76277;49.212;16.680;2024-03-08T06:09:35;3.21;78.77
85830;DHT22;76277;49.212;16.680;2024-03-08T06:12:20;3.21;78.77
85830;DHT22;76277;49.212;16.680;2024-03-08T06:15:05;3.21;78.77
85830;DHT22;76277;49.212;16.680;2024-03-08T06:17:49;3.21;78.77
85830;DHT22;76277;49.212;16.680;2024-03-08T06:20:34;3.21;78.77
85830;DHT22;76277;49.212;16.680;2024-03-08T06:23:19;3.50;78.71
85830;DHT22;76277;49.212;16.680;2024-03-08T06:26:03;3.50;78.71
85830;DHT22;76277;49.212;16.680;2024-03-08T06:28:48;3.50;78.71
85830;DHT22;76277;49.212;16.680;2024-03-08T06:31:33;3.50;78.71
85830;DHT22;76277;49.212;16.680;2024-03-08T06:34:17;3.50;78.71
85830;DHT22;76277;49.212;16.680;2024-03-08T06:37:02;3.58;77.87
85830;DHT22;76277;49.212;16.680;2024-03-08T06:39:47;3.58;77.87
85830;DHT22;76277;49.212;16.680;2024-03-08T06:42:31;3.58;77.87
85830;DHT22;76277;49.212;16.680;2024-03-08T06:45:16;3.58;77.87
85830;DHT22;76277;49.212;16.680;2024-03-08T06:48:01;3.58;77.87
85830;DHT22;76277;49.212;16.680;2024-03-08T06:50:45;3.58;77.87
85830;DHT22;76277;49.212;16.680;2024-03-08T06:53:30;4.05;76.81
85830;DHT22;76277;49.212;16.680;2024-03-08T06:56:14;4.05;76.81
85830;DHT22;76277;49.212;16.680;2024-03-08T06:58:59;4.05;76.81
85830;DHT22;76277;49.212;16.680;2024-03-08T07:01:44;4.05;76.81
85830;DHT22;76277;49.212;16.680;2024-03-08T07:04:29;4.05;76.81
85830;DHT22;76277;49.212;16.680;2024-03-08T07:07:13;4.29;75.83
85830;DHT22;76277;49.212;16.680;2024-03-08T07:09:58;4.29;75.83
85830;DHT22;76277;49.212;16.680;2024-03-08T07:12:43;4.29;75.83
85830;DHT22;76277;49.212;16.680;2024-03-08T07:15:27;4.29;75.83
85830;DHT22;76277;49.212;16.680;2024-03-08T07:18:12;4.29;75.83
85830;DHT22;76277;49.212;16.680;2024-03-08T07:20:56;4.29;75.83
85830;DHT22;76277;49.212;16.680;2024-03-08T07:23:41;4.39;75.34
85830;DHT22;76277;49.212;16.680;2024-03-08T07:26:26;4.39;75.34
85830;DHT22;76277;49.212;16.680;2024-03-08T07:29:10;4.39;75.34
85830;DHT22;76277;49.212;16.680;2024-03-08T07:31:55;4.39;75.34
85830;DHT22;76277;49.212;16.680;2024-03-08T07:34:40;4.39;75.34
85830;DHT22;76277;49.212;16.680;2024-03-08T07:37:25;4.36;75.47
85830;DHT22;76277;49.212;16.680;2024-03-08T07:40:09;4.36;75.47
85830;DHT22;76277;49.212;16.680;2024-03-08T07:42:54;4.36;75.47
85830;DHT22;76277;49.212;16.680;2024-03-08T07:45:39;4.36;75.47
85830;DHT22;76277;49.212;16.680;2024-03-08T07:48:23;4.36;75.47
85830;DHT22;76277;49.212;16.680;2024-03-08T07:51:08;4.36;75.47
85830;DHT22;76277;49.212;16.680;2024-03-08T07:53:52;4.77;74.76
85830;DHT22;76277;49.212;16.680;2024-03-08T07:56:37;4.77;74.76
85830;DHT22;76277;49.212;16.680;2024-03-08T07:59:22;4.77;74.76
85830;DHT22;76277;49.212;16.680;2024-03-08T08:02:06;4.77;74.76
85830;DHT22;76277;49.212;16.680;2024-03-08T08:04:51;4.77;74.76
85830;DHT22;76277;49.212;16.680;2024-03-08T08:07:36;4.96;73.68
85830;DHT22;76277;49.212;16.680;2024-03-08T08:10:21;4.96;73.68
85830;DHT22;76277;49.212;16.680;2024-03-08T08:13:05;4.96;73.68
85830;DHT22;76277;49.212;16.680;2024-03-08T08:15:50;4.96;73.68
85830;DHT22;76277;49.212;16.680;2024-03-08T08:18:34;4.96;73.68
85830;DHT22;76277;49.212;16.680;2024-03-08T08:21:19;4.96;73.68
85830;DHT22;76277;49.212;16.680;2024-03-08T08:24:04;5.07;73.33
85830;DHT22;76277;49.212;16.680;2024-03-08T08:26:49;5.07;73.33
85830;DHT22;76277;49.212;16.680;2024-03-08T08:29:33;5.07;73.33
85830;DHT22;76277;49.212;16.680;2024-03-08T08:32:18;5.07;73.33
85830;DHT22;76277;49.212;16.680;2024-03-08T08:35:03;5.07;73.33
85830;DHT22;76277;49.212;16.680;2024-03-08T08:37:47;5.11;73.23
85830;DHT22;76277;49.212;16.680;2024-03-08T08:40:32;5.11;73.23
85830;DHT22;76277;49.212;16.680;2024-03-08T08:43:16;5.11;73.23
85830;DHT22;76277;49.212;16.680;2024-03-08T08:46:01;5.11;73.23
85830;DHT22;76277;49.212;16.680;2024-03-08T08:48:46;5.11;73.23
85830;DHT22;76277;49.212;16.680;2024-03-08T08:51:30;5.11;73.23
85830;DHT22;76277;49.212;16.680;2024-03-08T08:54:15;5.29;73.02
85830;DHT22;76277;49.212;16.680;2024-03-08T08:57:00;5.29;73.02
85830;DHT22;76277;49.212;16.680;2024-03-08T09:02:29;5.29;73.02
85830;DHT22;76277;49.212;16.680;2024-03-08T09:05:14;5.29;73.02
85830;DHT22;76277;49.212;16.680;2024-03-08T09:07:58;5.51;72.75
85830;DHT22;76277;49.212;16.680;2024-03-08T09:10:43;5.51;72.75
85830;DHT22;76277;49.212;16.680;2024-03-08T09:13:28;5.51;72.75
85830;DHT22;76277;49.212;16.680;2024-03-08T09:16:12;5.51;72.75
85830;DHT22;76277;49.212;16.680;2024-03-08T09:18:57;5.51;72.75
85830;DHT22;76277;49.212;16.680;2024-03-08T09:21:42;5.51;72.75
85830;DHT22;76277;49.212;16.680;2024-03-08T09:24:26;5.74;72.32
85830;DHT22;76277;49.212;16.680;2024-03-08T09:27:11;5.74;72.32
85830;DHT22;76277;49.212;16.680;2024-03-08T09:29:56;5.74;72.32
85830;DHT22;76277;49.212;16.680;2024-03-08T09:32:40;5.74;72.32
85830;DHT22;76277;49.212;16.680;2024-03-08T09:35:25;5.74;72.32
85830;DHT22;76277;49.212;16.680;2024-03-08T09:38:09;6.01;72.26
85830;DHT22;76277;49.212;16.680;2024-03-08T09:40:54;6.01;72.26
85830;DHT22;76277;49.212;16.680;2024-03-08T09:43:39;6.01;72.26
85830;DHT22;76277;49.212;16.680;2024-03-08T09:46:24;6.01;72.26
85830;DHT22;76277;49.212;16.680;2024-03-08T09:49:08;6.01;72.26
85830;DHT22;76277;49.212;16.680;2024-03-08T09:51:53;6.01;72.26
85830;DHT22;76277;49.212;16.680;2024-03-08T09:54:38;8.25;66.00
85830;DHT22;76277;49.212;16.680;2024-03-08T09:57:22;8.25;66.00
85830;DHT22;76277;49.212;16.680;2024-03-08T10:00:07;8.25;66.00
85830;DHT22;76277;49.212;16.680;2024-03-08T10:02:52;8.25;66.00
85830;DHT22;76277;49.212;16.680;2024-03-08T10:05:36;8.25;66.00
85830;DHT22;76277;49.212;16.680;2024-03-08T10:08:21;8.13;66.74
85830;DHT22;76277;49.212;16.680;2024-03-08T10:11:06;8.13;66.74
85830;DHT22;76277;49.212;16.680;2024-03-08T10:13:51;8.13;66.74
85830;DHT22;76277;49.212;16.680;2024-03-08T10:16:35;8.13;66.74
85830;DHT22;76277;49.212;16.680;2024-03-08T10:19:20;8.13;66.74
85830;DHT22;76277;49.212;16.680;2024-03-08T10:22:04;8.13;66.74
85830;DHT22;76277;49.212;16.680;2024-03-08T10:24:49;8.95;65.40
85830;DHT22;76277;49.212;16.680;2024-03-08T10:27:33;8.95;65.40
85830;DHT22;76277;49.212;16.680;2024-03-08T10:30:18;8.95;65.40
85830;DHT22;76277;49.212;16.680;2024-03-08T10:33:03;8.95;65.40
85830;DHT22;76277;49.212;16.680;2024-03-08T10:35:48;8.95;65.40
85830;DHT22;76277;49.212;16.680;2024-03-08T10:38:32;8.37;68.04
85830;DHT22;76277;49.212;16.680;2024-03-08T10:41:17;8.37;68.04
85830;DHT22;76277;49.212;16.680;2024-03-08T10:44:07;8.37;68.04
85830;DHT22;76277;49.212;16.680;2024-03-08T10:46:50;8.37;68.04
85830;DHT22;76277;49.212;16.680;2024-03-08T10:49:32;8.37;68.04
85830;DHT22;76277;49.212;16.680;2024-03-08T10:52:16;8.37;68.04
85830;DHT22;76277;49.212;16.680;2024-03-08T10:55:00;9.80;64.48
85830;DHT22;76277;49.212;16.680;2024-03-08T10:57:45;9.80;64.48
85830;DHT22;76277;49.212;16.680;2024-03-08T11:00:30;9.80;64.48
85830;DHT22;76277;49.212;16.680;2024-03-08T11:05:59;9.80;64.48
85830;DHT22;76277;49.212;16.680;2024-03-08T11:08:44;9.55;65.66
85830;DHT22;76277;49.212;16.680;2024-03-08T11:11:29;9.55;65.66
85830;DHT22;76277;49.212;16.680;2024-03-08T11:16:57;9.55;65.66
85830;DHT22;76277;49.212;16.680;2024-03-08T11:19:45;9.55;65.66
85830;DHT22;76277;49.212;16.680;2024-03-08T11:22:27;9.55;65.66
85830;DHT22;76277;49.212;16.680;2024-03-08T11:30:41;8.39;68.96
85830;DHT22;76277;49.212;16.680;2024-03-08T11:33:26;8.39;68.96
85830;DHT22;76277;49.212;16.680;2024-03-08T11:36:10;8.39;68.96
85830;DHT22;76277;49.212;16.680;2024-03-08T11:38:56;8.60;68.96
85830;DHT22;76277;49.212;16.680;2024-03-08T11:41:40;8.60;68.96
85830;DHT22;76277;49.212;16.680;2024-03-08T11:44:26;8.60;68.96
85830;DHT22;76277;49.212;16.680;2024-03-08T11:47:09;8.60;68.96
85830;DHT22;76277;49.212;16.680;2024-03-08T11:49:53;8.60;68.96
85830;DHT22;76277;49.212;16.680;2024-03-08T11:52:38;8.60;68.96
85830;DHT22;76277;49.212;16.680;2024-03-08T11:55:23;9.56;67.20
85830;DHT22;76277;49.212;16.680;2024-03-08T11:58:08;9.56;67.20
85830;DHT22;76277;49.212;16.680;2024-03-08T12:00:59;9.56;67.20
85830;DHT22;76277;49.212;16.680;2024-03-08T12:03:37;9.56;67.20
85830;DHT22;76277;49.212;16.680;2024-03-08T12:06:22;9.56;67.20
85830;DHT22;76277;49.212;16.680;2024-03-08T12:09:08;9.86;65.36
85830;DHT22;76277;49.212;16.680;2024-03-08T12:11:51;9.86;65.36
85830;DHT22;76277;49.212;16.680;2024-03-08T12:14:36;9.86;65.36
85830;DHT22;76277;49.212;16.680;2024-03-08T12:17:20;9.86;65.36
85830;DHT22;76277;49.212;16.680;2024-03-08T12:22:50;9.86;65.36
85830;DHT22;76277;49.212;16.680;2024-03-08T12:25:34;11.73;60.08
85830;DHT22;76277;49.212;16.680;2024-03-08T12:28:19;11.73;60.08
85830;DHT22;76277;49.212;16.680;2024-03-08T12:31:03;11.73;60.08
85830;DHT22;76277;49.212;16.680;2024-03-08T12:33:49;11.73;60.08
85830;DHT22;76277;49.212;16.680;2024-03-08T12:36:33;11.73;60.08
85830;DHT22;76277;49.212;16.680;2024-03-08T12:39:17;12.65;57.54
85830;DHT22;76277;49.212;16.680;2024-03-08T12:42:02;12.65;57.54
85830;DHT22;76277;49.212;16.680;2024-03-08T12:44:47;12.65;57.54
85830;DHT22;76277;49.212;16.680;2024-03-08T12:47:32;12.65;57.54
85830;DHT22;76277;49.212;16.680;2024-03-08T12:50:16;12.65;57.54
85830;DHT22;76277;49.212;16.680;2024-03-08T12:53:01;12.65;57.54
85830;DHT22;76277;49.212;16.680;2024-03-08T12:55:45;11.62;60.17
85830;DHT22;76277;49.212;16.680;2024-03-08T12:58:30;11.62;60.17
85830;DHT22;76277;49.212;16.680;2024-03-08T13:01:15;11.62;60.17
85830;DHT22;76277;49.212;16.680;2024-03-08T13:04:00;11.62;60.17
85830;DHT22;76277;49.212;16.680;2024-03-08T13:06:44;11.62;60.17
85830;DHT22;76277;49.212;16.680;2024-03-08T13:09:29;9.35;66.89
85830;DHT22;76277;49.212;16.680;2024-03-08T13:12:13;9.35;66.89
85830;DHT22;76277;49.212;16.680;2024-03-08T13:14:58;9.35;66.89
85830;DHT22;76277;49.212;16.680;2024-03-08T13:17:43;9.35;66.89
85830;DHT22;76277;49.212;16.680;2024-03-08T13:20:27;9.35;66.89
85830;DHT22;76277;49.212;16.680;2024-03-08T13:23:12;9.35;66.89
85830;DHT22;76277;49.212;16.680;2024-03-08T13:25:57;9.46;66.28
85830;DHT22;76277;49.212;16.680;2024-03-08T13:28:41;9.46;66.28
85830;DHT22;76277;49.212;16.680;2024-03-08T13:31:26;9.46;66.28
85830;DHT22;76277;49.212;16.680;2024-03-08T13:34:11;9.46;66.28
85830;DHT22;76277;49.212;16.680;2024-03-08T13:36:56;9.46;66.28
85830;DHT22;76277;49.212;16.680;2024-03-08T13:39:40;8.83;67.82
85830;DHT22;76277;49.212;16.680;2024-03-08T13:42:25;8.83;67.82
85830;DHT22;76277;49.212;16.680;2024-03-08T13:47:54;8.83;67.82
85830;DHT22;76277;49.212;16.680;2024-03-08T13:50:39;8.83;67.82
85830;DHT22;76277;49.212;16.680;2024-03-08T13:53:24;8.83;67.82
85830;DHT22;76277;49.212;16.680;2024-03-08T13:56:08;8.28;69.90
85830;DHT22;76277;49.212;16.680;2024-03-08T13:58:54;8.28;69.90
85830;DHT22;76277;49.212;16.680;2024-03-08T14:01:37;8.28;69.90
85830;DHT22;76277;49.212;16.680;2024-03-08T14:04:22;8.28;69.90
85830;DHT22;76277;49.212;16.680;2024-03-08T14:07:07;8.28;69.90
85830;DHT22;76277;49.212;16.680;2024-03-08T14:09:51;7.46;72.49
85830;DHT22;76277;49.212;16.680;2024-03-08T14:12:36;7.46;72.49
85830;DHT22;76277;49.212;16.680;2024-03-08T14:15:20;7.46;72.49
85830;DHT22;76277;49.212;16.680;2024-03-08T14:20:50;7.46;72.49
85830;DHT22;76277;49.212;16.680;2024-03-08T14:23:34;7.46;72.49
85830;DHT22;76277;49.212;16.680;2024-03-08T14:26:19;7.58;72.75
85830;DHT22;76277;49.212;16.680;2024-03-08T14:29:04;7.58;72.75
85830;DHT22;76277;49.212;16.680;2024-03-08T14:31:48;7.58;72.75
85830;DHT22;76277;49.212;16.680;2024-03-08T14:34:33;7.58;72.75
85830;DHT22;76277;49.212;16.680;2024-03-08T14:37:18;7.58;72.75
85830;DHT22;76277;49.212;16.680;2024-03-08T14:40:03;7.70;72.48
85830;DHT22;76277;49.212;16.680;2024-03-08T14:42:47;7.70;72.48
85830;DHT22;76277;49.212;16.680;2024-03-08T14:45:32;7.70;72.48
85830;DHT22;76277;49.212;16.680;2024-03-08T14:48:17;7.70;72.48
85830;DHT22;76277;49.212;16.680;2024-03-08T14:51:01;7.70;72.48
85830;DHT22;76277;49.212;16.680;2024-03-08T14:53:46;7.70;72.48
85830;DHT22;76277;49.212;16.680;2024-03-08T14:56:31;7.42;73.56
85830;DHT22;76277;49.212;16.680;2024-03-08T14:59:15;7.42;73.56
85830;DHT22;76277;49.212;16.680;2024-03-08T15:02:00;7.42;73.56
85830;DHT22;76277;49.212;16.680;2024-03-08T15:04:46;7.42;73.56
85830;DHT22;76277;49.212;16.680;2024-03-08T15:07:29;7.42;73.56
85830;DHT22;76277;49.212;16.680;2024-03-08T15:10:14;7.15;74.75
85830;DHT22;76277;49.212;16.680;2024-03-08T15:12:58;7.15;74.75
85830;DHT22;76277;49.212;16.680;2024-03-08T15:15:43;7.15;74.75
85830;DHT22;76277;49.212;16.680;2024-03-08T15:18:28;7.15;74.75
85830;DHT22;76277;49.212;16.680;2024-03-08T15:21:13;7.15;74.75
85830;DHT22;76277;49.212;16.680;2024-03-08T15:23:57;6.86;76.11
85830;DHT22;76277;49.212;16.680;2024-03-08T15:26:42;6.86;76.11
85830;DHT22;76277;49.212;16.680;2024-03-08T15:29:26;6.86;76.11
85830;DHT22;76277;49.212;16.680;2024-03-08T15:32:11;6.86;76.11
85830;DHT22;76277;49.212;16.680;2024-03-08T15:34:56;6.86;76.11
85830;DHT22;76277;49.212;16.680;2024-03-08T15:37:41;6.86;76.11
85830;DHT22;76277;49.212;16.680;2024-03-08T15:40:25;6.76;76.62
85830;DHT22;76277;49.212;16.680;2024-03-08T15:43:10;6.76;76.62
85830;DHT22;76277;49.212;16.680;2024-03-08T15:45:54;6.76;76.62
85830;DHT22;76277;49.212;16.680;2024-03-08T15:48:39;6.76;76.62
85830;DHT22;76277;49.212;16.680;2024-03-08T15:51:24;6.76;76.62
85830;DHT22;76277;49.212;16.680;2024-03-08T15:54:09;6.65;77.44
85830;DHT22;76277;49.212;16.680;2024-03-08T15:56:53;6.65;77.44
85830;DHT22;76277;49.212;16.680;2024-03-08T15:59:38;6.65;77.44
85830;DHT22;76277;49.212;16.680;2024-03-08T16:02:22;6.65;77.44
85830;DHT22;76277;49.212;16.680;2024-03-08T16:05:07;6.65;77.44
85830;DHT22;76277;49.212;16.680;2024-03-08T16:07:52;6.65;77.44
85830;DHT22;76277;49.212;16.680;2024-03-08T16:10:36;6.48;78.61
85830;DHT22;76277;49.212;16.680;2024-03-08T16:13:22;6.48;78.61
85830;DHT22;76277;49.212;16.680;2024-03-08T16:16:06;6.48;78.61
85830;DHT22;76277;49.212;16.680;2024-03-08T16:18:50;6.48;78.61
85830;DHT22;76277;49.212;16.680;2024-03-08T16:21:35;6.48;78.61
85830;DHT22;76277;49.212;16.680;2024-03-08T16:24:20;6.18;80.00
85830;DHT22;76277;49.212;16.680;2024-03-08T16:27:05;6.18;80.00
85830;DHT22;76277;49.212;16.680;2024-03-08T16:29:49;6.18;80.00
85830;DHT22;76277;49.212;16.680;2024-03-08T16:32:34;6.18;80.00
85830;DHT22;76277;49.212;16.680;2024-03-08T16:35:19;6.18;80.00
85830;DHT22;76277;49.212;16.680;2024-03-08T16:38:03;6.18;80.00
85830;DHT22;76277;49.212;16.680;2024-03-08T16:40:48;6.00;80.94
85830;DHT22;76277;49.212;16.680;2024-03-08T16:43:32;6.00;80.94
85830;DHT22;76277;49.212;16.680;2024-03-08T16:46:17;6.00;80.94
85830;DHT22;76277;49.212;16.680;2024-03-08T16:49:02;6.00;80.94
85830;DHT22;76277;49.212;16.680;2024-03-08T16:51:46;6.00;80.94
85830;DHT22;76277;49.212;16.680;2024-03-08T16:54:32;5.91;81.24
85830;DHT22;76277;49.212;16.680;2024-03-08T16:57:16;5.91;81.24
85830;DHT22;76277;49.212;16.680;2024-03-08T17:00:00;5.91;81.24
85830;DHT22;76277;49.212;16.680;2024-03-08T17:02:45;5.91;81.24
85830;DHT22;76277;49.212;16.680;2024-03-08T17:05:30;5.91;81.24
85830;DHT22;76277;49.212;16.680;2024-03-08T17:08:14;5.91;81.24
85830;DHT22;76277;49.212;16.680;2024-03-08T17:10:59;5.70;82.03
85830;DHT22;76277;49.212;16.680;2024-03-08T17:13:44;5.70;82.03
85830;DHT22;76277;49.212;16.680;2024-03-08T17:16:28;5.70;82.03
85830;DHT22;76277;49.212;16.680;2024-03-08T17:19:13;5.70;82.03
85830;DHT22;76277;49.212;16.680;2024-03-08T17:21:58;5.70;82.03
85830;DHT22;76277;49.212;16.680;2024-03-08T17:24:42;5.69;82.63
85830;DHT22;76277;49.212;16.680;2024-03-08T17:27:27;5.69;82.63
85830;DHT22;76277;49.212;16.680;2024-03-08T17:30:12;5.69;82.63
85830;DHT22;76277;49.212;16.680;2024-03-08T17:32:57;5.69;82.63
85830;DHT22;76277;49.212;16.680;2024-03-08T17:35:41;5.69;82.63
85830;DHT22;76277;49.212;16.680;2024-03-08T17:38:26;5.69;82.63
85830;DHT22;76277;49.212;16.680;2024-03-08T17:41:10;5.55;83.53
85830;DHT22;76277;49.212;16.680;2024-03-08T17:43:55;5.55;83.53